Time;durP1;ratioP1;P1;durP2;ratioP2;P2;SDS_P1;SDS_P2;PMS_P1;PMS_P2;Temp;Humidity;BMP_temperature;BMP_pressure;BME280_temperature;BME280_humidity;BME280_pressure;Samples;Min_cycle;Max_cycle;Signal;HPM_P1;HPM_P2
2020/12/30 00:01:52;;;;;;;1.88;0.57;;;23.40;59.20;;;;;;6396068;22;20013;-69
2020/12/30 00:04:58;;;;;;;4.60;1.25;;;23.40;59.30;;;;;;6397039;22;19998;-69
2020/12/30 00:07:25;;;;;;;0.82;0.57;;;23.40;59.40;;;;;;6395744;22;20427;-69
2020/12/30 00:10:31;;;;;;;3.28;0.98;;;23.40;59.50;;;;;;6396308;22;20421;-69
2020/12/30 00:13:37;;;;;;;1.55;0.82;;;23.40;59.50;;;;;;6396115;22;20370;-68
2020/12/30 00:16:04;;;;;;;3.03;1.23;;;23.30;59.60;;;;;;6396098;22;20321;-69
2020/12/30 00:18:30;;;;;;;4.30;1.00;;;23.30;59.70;;;;;;6396491;22;20012;-69
2020/12/30 00:21:36;;;;;;;2.60;0.77;;;23.30;59.70;;;;;;6396854;22;20018;-69
2020/12/30 00:24:42;;;;;;;3.42;1.00;;;23.30;59.80;;;;;;6366658;22;20391;-68
2020/12/30 00:27:48;;;;;;;4.45;1.05;;;23.30;59.90;;;;;;6395863;22;20452;-69
2020/12/30 00:30:57;;;;;;;3.70;0.80;;;23.30;60.00;;;;;;6397072;22;19998;-69
2020/12/30 00:34:04;;;;;;;3.35;1.33;;;23.30;60.10;;;;;;6395510;22;20001;-69
2020/12/30 00:37:10;;;;;;;1.48;0.60;;;23.30;60.90;;;;;;6394587;22;20047;-69
2020/12/30 00:40:16;;;;;;;5.22;0.98;;;23.20;60.20;;;;;;6396515;22;20055;-70
2020/12/30 00:43:22;;;;;;;3.33;0.68;;;23.20;60.20;;;;;;6396258;22;20002;-69
2020/12/30 00:45:48;;;;;;;;;;;23.20;60.20;;;;;;6395612;22;20025;-69
2020/12/30 00:48:54;;;;;;;2.92;0.80;;;23.20;60.30;;;;;;6396500;22;19912;-69
2020/12/30 00:52:00;;;;;;;2.25;0.88;;;23.20;60.30;;;;;;6396302;22;20077;-69
2020/12/30 00:55:06;;;;;;;3.45;1.15;;;23.20;60.40;;;;;;6395118;22;19994;-69
2020/12/30 00:58:12;;;;;;;3.38;0.80;;;23.20;60.40;;;;;;6395872;22;20330;-69
2020/12/30 01:01:18;;;;;;;1.83;0.80;;;23.20;60.50;;;;;;6396568;22;20010;-69
2020/12/30 01:04:24;;;;;;;2.38;1.30;;;23.10;60.40;;;;;;6395075;22;20373;-69
2020/12/30 01:07:30;;;;;;;3.33;1.05;;;23.20;60.60;;;;;;6394349;22;20088;-68
2020/12/30 01:14:01;;;;;;;1.30;0.60;;;23.10;60.40;;;;;;6356484;22;20169;-70
2020/12/30 01:17:07;;;;;;;5.60;1.50;;;23.10;60.30;;;;;;6359340;22;20029;-69
2020/12/30 01:20:13;;;;;;;3.88;0.70;;;23.10;60.40;;;;;;6359936;22;20051;-69
2020/12/30 01:22:59;;;;;;;;;;;23.10;60.60;;;;;;6360284;22;20021;-69
2020/12/30 01:25:30;;;;;;;1.40;0.85;;;23.00;60.60;;;;;;6360083;22;19910;-69
2020/12/30 01:28:36;;;;;;;1.95;1.02;;;23.00;60.70;;;;;;6333824;22;20006;-69
2020/12/30 01:31:45;;;;;;;2.65;0.60;;;23.00;60.60;;;;;;6360613;22;20017;-68
2020/12/30 01:34:52;;;;;;;3.33;0.70;;;23.00;60.70;;;;;;6360970;22;20006;-68
2020/12/30 01:37:58;;;;;;;2.05;0.77;;;23.00;60.80;;;;;;6359725;22;20020;-68
2020/12/30 01:41:04;;;;;;;4.15;1.50;;;23.00;60.80;;;;;;6361218;22;20046;-69
2020/12/30 01:44:19;;;;;;;4.75;1.38;;;23.00;60.80;;;;;;6360929;22;20010;-68
2020/12/30 01:46:47;;;;;;;4.47;0.80;;;23.00;60.70;;;;;;6359593;22;20029;-68
2020/12/30 01:49:53;;;;;;;4.78;1.77;;;22.90;60.50;;;;;;6360706;22;20077;-67
2020/12/30 01:52:59;;;;;;;1.92;1.10;;;22.90;60.50;;;;;;6396044;22;19997;-68
2020/12/30 01:55:40;;;;;;;1.80;0.60;;;22.90;60.40;;;;;;6395401;22;20327;-67
2020/12/30 01:58:49;;;;;;;2.55;1.15;;;22.90;60.40;;;;;;6369423;22;20006;-68
2020/12/30 02:01:55;;;;;;;3.00;0.77;;;22.90;60.40;;;;;;6396280;22;20091;-68
2020/12/30 02:04:47;;;;;;;4.07;0.70;;;22.90;60.40;;;;;;6395052;22;20005;-69
2020/12/30 02:07:42;;;;;;;2.05;1.15;;;22.80;60.40;;;;;;6394397;22;20016;-68
2020/12/30 02:10:48;;;;;;;2.80;0.80;;;22.80;60.30;;;;;;6367858;22;20086;-68
2020/12/30 02:13:54;;;;;;;3.80;1.13;;;22.80;60.30;;;;;;6395021;22;20012;-68
2020/12/30 02:17:15;;;;;;;5.30;1.85;;;22.80;60.30;;;;;;6396633;22;19998;-68
2020/12/30 02:20:21;;;;;;;2.40;1.02;;;22.80;60.20;;;;;;6397663;22;19997;-67
2020/12/30 02:23:27;;;;;;;1.60;0.63;;;22.80;60.20;;;;;;6398152;22;20002;-68
2020/12/30 02:25:54;;;;;;;1.95;0.70;;;22.70;60.20;;;;;;6396303;22;20046;-67
2020/12/30 02:28:21;;;;;;;3.05;1.02;;;22.70;60.20;;;;;;6397312;22;20009;-68
2020/12/30 02:30:47;;;;;;;2.65;1.27;;;22.70;60.30;;;;;;6398037;22;20017;-68
2020/12/30 02:33:53;;;;;;;5.22;0.93;;;22.70;60.30;;;;;;6396682;22;20002;-68
2020/12/30 02:36:59;;;;;;;3.45;0.90;;;22.70;60.40;;;;;;6397813;22;19998;-67
2020/12/30 02:40:05;;;;;;;4.20;0.82;;;22.70;60.50;;;;;;6397526;22;20021;-68
2020/12/30 02:43:12;;;;;;;3.15;1.25;;;22.70;61.30;;;;;;6395974;22;20021;-68
2020/12/30 02:46:18;;;;;;;4.03;1.27;;;22.70;60.60;;;;;;6397441;22;19998;-69
2020/12/30 02:49:24;;;;;;;2.38;0.70;;;22.70;60.60;;;;;;6398208;22;20006;-67
2020/12/30 02:52:30;;;;;;;1.38;0.63;;;22.70;60.60;;;;;;6397056;22;20236;-68
2020/12/30 02:55:36;;;;;;;3.40;0.80;;;22.70;60.60;;;;;;6396767;22;20034;-68
2020/12/30 02:58:43;;;;;;;2.35;0.80;;;22.70;61.30;;;;;;6398037;22;20018;-68
2020/12/30 03:01:13;;;;;;;3.75;1.10;;;22.70;60.50;;;;;;6397937;22;20348;-68
2020/12/30 03:03:40;;;;;;;3.38;1.38;;;22.70;60.60;;;;;;6396521;22;19998;-67
2020/12/30 03:06:46;;;;;;;1.23;0.82;;;22.70;60.50;;;;;;6397405;22;20070;-67
2020/12/30 03:09:13;;;;;;;2.20;0.63;;;22.70;60.50;;;;;;6397134;22;20009;-67
2020/12/30 03:11:39;;;;;;;2.08;0.60;;;22.70;60.50;;;;;;6396541;22;20013;-68
2020/12/30 03:14:06;;;;;;;4.00;0.60;;;22.70;60.40;;;;;;6397929;22;20013;-68
2020/12/30 03:17:12;;;;;;;1.13;0.57;;;22.70;60.30;;;;;;6396506;22;19990;-68
2020/12/30 03:20:18;;;;;;;1.75;0.68;;;22.70;60.40;;;;;;6398215;22;19994;-68
2020/12/30 03:23:24;;;;;;;2.15;0.70;;;22.70;60.40;;;;;;6397067;22;20090;-68
2020/12/30 03:26:32;;;;;;;3.40;0.80;;;22.70;60.40;;;;;;6395559;22;20071;-68
2020/12/30 03:29:38;;;;;;;5.50;0.40;;;22.70;60.50;;;;;;6396471;22;20016;-67
2020/12/30 03:32:44;;;;;;;1.27;0.50;;;22.70;60.50;;;;;;6397191;22;20002;-68
2020/12/30 03:35:11;;;;;;;3.13;0.43;;;22.70;60.60;;;;;;6396418;22;20043;-68
2020/12/30 03:38:17;;;;;;;2.58;0.77;;;22.70;60.70;;;;;;6396823;22;20044;-68
2020/12/30 03:41:23;;;;;;;3.38;0.70;;;22.70;60.80;;;;;;6397194;22;20010;-68
2020/12/30 03:44:29;;;;;;;3.65;0.80;;;22.70;60.90;;;;;;6396427;22;20005;-68
2020/12/30 03:47:35;;;;;;;2.00;0.82;;;22.70;60.90;;;;;;6367385;22;20449;-68
2020/12/30 03:50:41;;;;;;;2.47;0.52;;;22.70;61.00;;;;;;6396798;22;19998;-68
2020/12/30 03:53:47;;;;;;;2.33;0.75;;;22.70;61.00;;;;;;6397359;22;20707;-68
2020/12/30 03:56:34;;;;;;;;;;;22.70;61.00;;;;;;6396433;22;20006;-68
2020/12/30 03:59:40;;;;;;;7.30;3.78;;;22.70;61.00;;;;;;6396858;22;19897;-68
2020/12/30 04:03:02;;;;;;;5.57;3.03;;;22.70;61.10;;;;;;6395245;22;20018;-68
2020/12/30 04:05:37;;;;;;;7.10;2.00;;;22.70;61.20;;;;;;6396254;22;20002;-69
2020/12/30 04:08:03;;;;;;;5.63;1.60;;;22.70;61.20;;;;;;6368019;22;20070;-72
2020/12/30 04:10:31;;;;;;;7.55;1.80;;;22.80;61.20;;;;;;6397060;22;20002;-68
2020/12/30 04:12:57;;;;;;;3.33;1.08;;;22.70;61.30;;;;;;6395917;22;20367;-67
2020/12/30 04:15:23;;;;;;;3.55;1.27;;;22.70;61.30;;;;;;6397306;22;20008;-67
2020/12/30 04:18:30;;;;;;;2.08;1.10;;;22.80;61.30;;;;;;6395293;22;20449;-68
2020/12/30 04:21:42;;;;;;;4.47;1.05;;;22.80;61.30;;;;;;6396105;22;20452;-68
2020/12/30 04:24:48;;;;;;;2.95;2.63;;;22.80;61.20;;;;;;6396540;22;20091;-69
2020/12/30 04:27:34;;;;;;;;;;;22.80;61.10;;;;;;6397396;22;20140;-68
2020/12/30 04:30:40;;;;;;;4.03;2.28;;;22.80;61.10;;;;;;6391253;22;19937;-68
2020/12/30 04:33:16;;;;;;;;;;;22.70;61.00;;;;;;6367919;22;20002;-68
2020/12/30 04:35:43;;;;;;;5.78;1.50;;;22.80;61.10;;;;;;6367533;22;19901;-67
2020/12/30 04:38:09;;;;;;;5.97;2.17;;;22.80;61.00;;;;;;6395801;22;20012;-67
2020/12/30 04:40:36;;;;;;;1.85;0.82;;;22.80;61.00;;;;;;6395664;22;20006;-67
2020/12/30 04:43:05;;;;;;;1.77;1.00;;;22.80;61.00;;;;;;6394988;22;20005;-67
2020/12/30 04:46:12;;;;;;;4.47;1.08;;;22.70;61.10;;;;;;6395673;22;20082;-68
2020/12/30 04:49:18;;;;;;;4.72;1.42;;;22.80;61.20;;;;;;6366769;22;20002;-67
2020/12/30 04:52:24;;;;;;;4.47;1.80;;;22.80;61.10;;;;;;6394538;22;20013;-71
2020/12/30 04:55:30;;;;;;;4.93;1.40;;;22.80;61.10;;;;;;6396292;22;20072;-72
2020/12/30 04:58:25;;;;;;;2.90;1.83;;;22.80;61.10;;;;;;6396357;22;20701;-69
2020/12/30 05:01:31;;;;;;;1.67;0.98;;;22.80;61.10;;;;;;6394601;22;20081;-69
2020/12/30 05:04:37;;;;;;;1.80;1.33;;;22.80;61.00;;;;;;6394332;22;20002;-68
2020/12/30 05:07:27;;;;;;;;;;;22.90;61.20;;;;;;6396033;22;20082;-68
2020/12/30 05:10:35;;;;;;;2.78;0.75;;;22.90;61.20;;;;;;6394478;22;19929;-67
2020/12/30 05:13:43;;;;;;;3.47;1.23;;;22.90;61.20;;;;;;6394796;22;20025;-68
2020/12/30 05:16:49;;;;;;;4.30;0.93;;;22.90;61.20;;;;;;6389691;22;20029;-71
2020/12/30 05:19:55;;;;;;;7.18;1.08;;;23.00;61.20;;;;;;6395576;22;20021;-68
2020/12/30 05:23:01;;;;;;;1.63;0.60;;;23.00;61.30;;;;;;6394896;22;20011;-68
2020/12/30 05:25:40;;;;;;;2.78;0.85;;;23.00;61.20;;;;;;6395875;22;20014;-67
2020/12/30 05:28:12;;;;;;;3.85;1.08;;;23.00;61.30;;;;;;6369453;22;20573;-67
2020/12/30 05:31:18;;;;;;;5.50;0.90;;;23.00;61.20;;;;;;6395086;22;20006;-68
2020/12/30 05:33:45;;;;;;;1.05;0.70;;;23.00;61.10;;;;;;6395743;22;20002;-67
2020/12/30 05:36:51;;;;;;;2.35;0.73;;;23.10;61.10;;;;;;6395251;22;20004;-74
2020/12/30 05:39:40;;;;;;;3.90;1.73;;;23.10;61.10;;;;;;6394994;22;19993;-67
2020/12/30 05:42:58;;;;;;;5.60;0.90;;;23.10;61.10;;;;;;6393432;22;20341;-67
2020/12/30 05:45:43;;;;;;;3.33;0.85;;;23.10;61.10;;;;;;6395444;22;20513;-68
2020/12/30 05:48:53;;;;;;;3.10;0.88;;;23.20;61.10;;;;;;6394520;22;20440;-67
2020/12/30 05:52:05;;;;;;;4.05;2.03;;;23.20;61.10;;;;;;6395840;22;20005;-68
2020/12/30 05:55:17;;;;;;;6.40;4.03;;;23.20;61.10;;;;;;6395783;22;20155;-69
2020/12/30 05:58:23;;;;;;;7.57;3.90;;;23.30;61.20;;;;;;6395162;22;20081;-69
2020/12/30 06:00:49;;;;;;;5.05;2.63;;;23.30;61.00;;;;;;6394663;22;20464;-75
2020/12/30 06:03:55;;;;;;;5.10;2.38;;;23.40;61.00;;;;;;6395964;22;19998;-69
2020/12/30 06:06:22;;;;;;;;;;;23.40;61.10;;;;;;6395681;22;20001;-70
2020/12/30 06:08:52;;;;;;;2.97;1.80;;;23.50;61.00;;;;;;6395103;22;19897;-69
2020/12/30 06:11:58;;;;;;;4.15;1.73;;;23.50;61.00;;;;;;6396800;22;20367;-68
2020/12/30 06:15:04;;;;;;;2.00;1.38;;;23.50;61.00;;;;;;6393367;22;20002;-70
2020/12/30 06:18:13;;;;;;;4.78;1.10;;;23.50;60.90;;;;;;6394979;22;20002;-70
2020/12/30 06:21:19;;;;;;;3.10;1.20;;;23.60;60.90;;;;;;6394954;22;20014;-70
2020/12/30 06:24:05;;;;;;;;;;;23.60;60.80;;;;;;6395241;22;20002;-70
2020/12/30 06:26:31;;;;;;;2.67;1.23;;;23.60;60.80;;;;;;6391822;22;19910;-69
2020/12/30 06:29:37;;;;;;;4.93;1.60;;;23.70;60.70;;;;;;6393741;22;20002;-71
2020/12/30 06:32:43;;;;;;;2.58;0.80;;;23.70;60.70;;;;;;6394537;22;20498;-69
2020/12/30 06:35:35;;;;;;;3.38;2.38;;;23.70;60.60;;;;;;6393704;22;19998;-69
2020/12/30 06:38:59;;;;;;;2.28;0.80;;;23.80;60.60;;;;;;6366916;22;20005;-70
2020/12/30 06:42:14;;;;;;;3.15;0.95;;;23.90;60.50;;;;;;6394906;22;20064;-69
2020/12/30 06:45:20;;;;;;;3.45;1.65;;;24.00;60.50;;;;;;6393100;22;20006;-69
2020/12/30 06:48:38;;;;;;;5.68;2.15;;;24.00;60.40;;;;;;6395099;22;20391;-71
2020/12/30 06:51:25;;;;;;;5.72;2.15;;;24.00;60.30;;;;;;6397096;22;20005;-70
2020/12/30 06:53:53;;;;;;;7.05;2.65;;;24.10;60.60;;;;;;6395586;22;20499;-69
2020/12/30 06:56:40;;;;;;;3.78;2.85;;;24.20;60.50;;;;;;6395336;22;20050;-70
2020/12/30 06:59:08;;;;;;;6.93;3.90;;;24.20;60.50;;;;;;6396836;22;20002;-72
2020/12/30 07:01:54;;;;;;;5.28;3.25;;;24.20;60.60;;;;;;6397152;22;20089;-70
2020/12/30 07:04:25;;;;;;;5.53;3.22;;;24.30;60.80;;;;;;6398944;22;20025;-69
2020/12/30 07:06:55;;;;;;;4.90;2.97;;;24.20;60.80;;;;;;6397557;22;20009;-69
2020/12/30 07:09:32;;;;;;;6.40;3.40;;;24.30;60.90;;;;;;6398809;22;20024;-71
2020/12/30 07:12:01;;;;;;;4.70;2.20;;;24.20;61.00;;;;;;6371141;22;20334;-70
2020/12/30 07:14:29;;;;;;;5.18;1.85;;;24.20;61.10;;;;;;6397938;22;19986;-71
2020/12/30 07:16:59;;;;;;;7.80;2.03;;;24.20;61.30;;;;;;6400114;22;19998;-71
2020/12/30 07:19:27;;;;;;;6.25;1.85;;;24.20;61.50;;;;;;6397499;22;20033;-71
2020/12/30 07:21:59;;;;;;;7.60;1.35;;;24.10;61.70;;;;;;6399334;22;20424;-69
2020/12/30 07:24:30;;;;;;;5.60;1.35;;;24.10;61.80;;;;;;6398228;22;20002;-71
2020/12/30 07:27:04;;;;;;;9.30;2.72;;;24.10;62.00;;;;;;6398823;22;20070;-70
2020/12/30 07:29:31;;;;;;;7.53;1.88;;;24.10;62.20;;;;;;6399691;22;20008;-71
2020/12/30 07:32:03;;;;;;;8.45;1.58;;;24.00;62.40;;;;;;6398858;22;19994;-70
2020/12/30 07:34:35;;;;;;;8.15;2.35;;;24.10;62.60;;;;;;6399632;22;20005;-70
2020/12/30 07:37:04;;;;;;;8.35;2.15;;;24.10;62.70;;;;;;6398088;22;20005;-72
2020/12/30 07:39:34;;;;;;;4.88;1.45;;;24.00;62.60;;;;;;6398503;22;20302;-70
2020/12/30 07:42:02;;;;;;;6.32;2.30;;;24.10;62.90;;;;;;6398817;22;20017;-71
2020/12/30 07:44:29;;;;;;;6.43;2.53;;;24.10;63.10;;;;;;6397673;22;20325;-71
2020/12/30 07:47:05;;;;;;;4.93;1.65;;;24.10;63.30;;;;;;6399245;22;20048;-71
2020/12/30 07:49:32;;;;;;;8.55;2.05;;;24.10;63.30;;;;;;6398266;22;20049;-70
2020/12/30 07:52:01;;;;;;;6.22;3.13;;;24.10;63.20;;;;;;6397981;22;20084;-70
2020/12/30 07:54:28;;;;;;;3.50;1.60;;;24.20;63.00;;;;;;6397889;22;20543;-72
2020/12/30 07:57:05;;;;;;;7.60;2.13;;;24.20;62.90;;;;;;6398661;22;20021;-71
2020/12/30 07:59:33;;;;;;;8.18;2.88;;;24.30;62.80;;;;;;6398976;22;19998;-70
2020/12/30 08:02:17;;;;;;;12.25;2.50;;;24.30;62.60;;;;;;6397275;22;20029;-71
2020/12/30 08:04:46;;;;;;;9.23;2.05;;;24.30;62.40;;;;;;6398980;22;20001;-70
2020/12/30 08:07:14;;;;;;;5.82;1.45;;;24.40;62.20;;;;;;6397307;22;20074;-70
2020/12/30 08:09:43;;;;;;;10.45;2.75;;;24.40;62.00;;;;;;6399299;22;20114;-71
2020/12/30 08:12:14;;;;;;;9.20;2.38;;;24.50;61.80;;;;;;6397803;22;19998;-71
2020/12/30 08:14:42;;;;;;;11.30;2.13;;;24.50;61.50;;;;;;6398101;22;20006;-70
2020/12/30 08:17:11;;;;;;;10.20;2.33;;;24.50;61.20;;;;;;6398929;22;19998;-71
2020/12/30 08:19:47;;;;;;;8.43;2.05;;;24.60;61.10;;;;;;6397792;22;20009;-72
2020/12/30 08:22:31;;;;;;;9.23;3.05;;;24.60;60.80;;;;;;6370663;22;20010;-69
2020/12/30 08:24:58;;;;;;;12.13;2.65;;;24.80;60.60;;;;;;6398347;22;20070;-71
2020/12/30 08:27:27;;;;;;;10.02;2.25;;;24.80;60.30;;;;;;6398196;22;20001;-70
2020/12/30 08:29:54;;;;;;;13.02;2.40;;;24.80;60.00;;;;;;6399163;22;19998;-71
2020/12/30 08:32:26;;;;;;;10.68;2.08;;;24.90;59.80;;;;;;6397433;22;20036;-71
2020/12/30 08:35:00;;;;;;;7.50;1.83;;;24.90;59.70;;;;;;6398687;22;20012;-71
2020/12/30 08:37:29;;;;;;;8.20;2.20;;;25.00;59.50;;;;;;6397341;22;20073;-71
2020/12/30 08:40:29;;;;;;;13.18;3.90;;;25.00;59.10;;;;;;6398749;22;20065;-72
2020/12/30 08:42:58;;;;;;;8.63;2.60;;;25.10;59.00;;;;;;6398387;22;20064;-71
2020/12/30 08:45:29;;;;;;;7.18;2.13;;;25.10;58.70;;;;;;6397432;22;20476;-70
2020/12/30 08:47:59;;;;;;;11.35;2.70;;;25.10;58.50;;;;;;6398638;22;20428;-71
2020/12/30 08:50:27;;;;;;;11.60;2.40;;;25.20;58.30;;;;;;6397997;22;19998;-69
2020/12/30 08:52:57;;;;;;;9.25;2.83;;;25.20;58.10;;;;;;6398588;22;20051;-69
2020/12/30 08:56:03;;;;;;;9.77;3.40;;;25.20;58.00;;;;;;6398048;22;20002;-68
2020/12/30 08:58:49;;;;;;;;;;;25.30;57.80;;;;;;6393362;22;20006;-68
2020/12/30 09:02:01;;;;;;;5.78;2.13;;;25.30;57.60;;;;;;6398137;22;19955;-69
2020/12/30 09:05:13;;;;;;;13.63;2.92;;;25.40;57.50;;;;;;6397588;22;20001;-68
2020/12/30 09:08:31;;;;;;;18.95;3.17;;;25.50;57.40;;;;;;6396069;22;19998;-67
2020/12/30 09:11:37;;;;;;;14.77;9.25;;;25.50;57.00;;;;;;6396898;22;20005;-67
2020/12/30 09:14:32;;;;;;;;;;;25.60;56.70;;;;;;6398335;22;20147;-68
2020/12/30 09:17:38;;;;;;;20.83;10.80;;;25.60;56.70;;;;;;6396619;22;19959;-67
2020/12/30 09:20:50;;;;;;;16.17;7.07;;;25.70;56.80;;;;;;6396370;22;20120;-67
2020/12/30 09:23:56;;;;;;;17.98;7.53;;;25.70;56.80;;;;;;6397137;22;20034;-69
2020/12/30 09:26:29;;;;;;;;;;;25.70;56.80;;;;;;6398367;22;20009;-68
2020/12/30 09:29:38;;;;;;;13.13;4.55;;;25.80;57.40;;;;;;6403029;22;20311;-68
2020/12/30 09:32:04;;;;;;;13.38;4.70;;;26.20;56.90;;;;;;6396276;22;20135;-69
2020/12/30 09:34:31;;;;;;;373.95;339.63;;;26.30;53.90;;;;;;6401457;22;19998;-69
2020/12/30 09:37:37;;;;;;;318.15;288.48;;;26.20;54.50;;;;;;6393764;22;20072;-67
2020/12/30 09:40:43;;;;;;;110.75;99.68;;;26.20;55.00;;;;;;6394456;22;20010;-68
2020/12/30 09:43:17;;;;;;;42.15;36.08;;;26.10;55.20;;;;;;6394965;22;20084;-67
2020/12/30 09:45:44;;;;;;;19.83;15.15;;;26.20;55.20;;;;;;6395261;22;20028;-67
2020/12/30 09:48:21;;;;;;;23.42;14.57;;;26.20;55.10;;;;;;6397315;22;20077;-67
2020/12/30 09:50:51;;;;;;;13.73;6.43;;;26.20;54.90;;;;;;6393638;22;20002;-65
2020/12/30 09:53:35;;;;;;;12.13;6.15;;;26.30;55.00;;;;;;6394719;22;20054;-66
2020/12/30 09:56:41;;;;;;;7.93;4.22;;;26.30;54.60;;;;;;6366894;22;19998;-67
2020/12/30 09:59:47;;;;;;;11.32;3.25;;;26.30;53.90;;;;;;6394234;22;20006;-67
2020/12/30 10:02:13;;;;;;;8.73;3.25;;;26.40;54.00;;;;;;6395791;22;20005;-72
2020/12/30 10:04:57;;;;;;;9.90;2.75;;;26.40;54.10;;;;;;6395131;22;20001;-72
2020/12/30 10:07:24;;;;;;;10.52;3.25;;;26.50;54.10;;;;;;6366228;22;20475;-72
2020/12/30 10:09:52;;;;;;;8.75;2.13;;;26.50;54.10;;;;;;6395665;22;19994;-73
2020/12/30 10:12:39;;;;;;;7.93;3.03;;;26.50;54.00;;;;;;6394274;22;20006;-72
2020/12/30 10:15:08;;;;;;;12.13;3.22;;;26.50;54.10;;;;;;6396246;22;20073;-73
2020/12/30 10:18:14;;;;;;;10.77;3.00;;;26.50;54.20;;;;;;6394670;22;20069;-71
2020/12/30 10:20:40;;;;;;;9.50;3.15;;;26.60;53.80;;;;;;6394298;22;20017;-72
2020/12/30 10:23:26;;;;;;;9.35;2.53;;;26.60;53.90;;;;;;6395433;22;20005;-74
2020/12/30 10:25:53;;;;;;;9.88;3.08;;;26.60;53.90;;;;;;6393775;22;20021;-73
2020/12/30 10:28:19;;;;;;;6.80;2.08;;;26.70;53.80;;;;;;6395672;22;20009;-69
2020/12/30 10:31:26;;;;;;;9.90;3.28;;;26.70;53.60;;;;;;6395135;22;20005;-70
2020/12/30 10:33:52;;;;;;;8.77;2.38;;;26.70;53.20;;;;;;6394070;22;20038;-75
2020/12/30 10:36:42;;;;;;;11.20;2.70;;;26.80;53.10;;;;;;6396781;22;20001;-74
2020/12/30 10:39:32;;;;;;;10.60;2.25;;;26.80;52.70;;;;;;6368546;22;20094;-68
2020/12/30 10:42:19;;;;;;;6.00;2.00;;;26.90;52.30;;;;;;6368136;22;20028;-74
2020/12/30 10:44:46;;;;;;;8.18;2.45;;;26.90;52.00;;;;;;6397095;22;20012;-67
2020/12/30 10:47:13;;;;;;;6.63;2.40;;;26.90;51.80;;;;;;6396670;22;20004;-73
2020/12/30 10:49:40;;;;;;;8.90;3.63;;;27.00;51.40;;;;;;6397266;22;20002;-72
2020/12/30 10:52:46;;;;;;;12.63;2.92;;;27.00;51.20;;;;;;6396686;22;20008;-70
2020/12/30 10:58:38;;;;;;;8.20;2.22;;;27.00;50.60;;;;;;6330295;22;20515;-68
2020/12/30 11:01:31;;;;;;;11.20;2.85;;;27.00;50.80;;;;;;6330367;22;20026;-73
2020/12/30 11:04:26;;;;;;;7.22;2.10;;;27.00;50.70;;;;;;6303541;22;20450;-71
2020/12/30 11:06:52;;;;;;;4.50;2.00;;;27.00;50.50;;;;;;6304850;22;20037;-73
2020/12/30 11:09:19;;;;;;;8.25;2.25;;;27.00;50.50;;;;;;6329310;22;20011;-71
2020/12/30 11:12:07;;;;;;;9.63;2.05;;;27.00;50.30;;;;;;6328473;22;19999;-72
2020/12/30 11:14:34;;;;;;;6.45;2.25;;;27.10;50.20;;;;;;6330249;22;20457;-71
2020/12/30 11:17:00;;;;;;;6.47;1.67;;;27.00;50.10;;;;;;6328929;22;20039;-72
2020/12/30 11:20:06;;;;;;;8.10;3.08;;;27.10;50.10;;;;;;6330319;22;20014;-73
2020/12/30 11:23:13;;;;;;;7.90;1.98;;;27.10;50.10;;;;;;6329303;22;20015;-73
2020/12/30 11:25:45;;;;;;;6.47;2.05;;;27.20;50.20;;;;;;6329600;22;20088;-70
2020/12/30 11:28:13;;;;;;;7.28;2.80;;;27.20;50.10;;;;;;6330674;22;20007;-71
2020/12/30 11:30:59;;;;;;;7.47;2.70;;;27.30;50.10;;;;;;6329113;22;20598;-69
2020/12/30 11:33:26;;;;;;;8.95;2.47;;;27.30;49.90;;;;;;6326942;22;20082;-71
2020/12/30 11:35:52;;;;;;;9.65;2.45;;;27.30;49.70;;;;;;6365944;22;20080;-72
2020/12/30 11:38:37;;;;;;;6.63;2.60;;;27.30;49.60;;;;;;6397753;22;19998;-71
2020/12/30 11:41:31;;;;;;;11.07;2.30;;;27.30;49.50;;;;;;6398743;22;20437;-72
2020/12/30 11:44:35;;;;;;;13.85;3.17;;;27.30;49.40;;;;;;6369943;22;20006;-72
2020/12/30 11:47:01;;;;;;;10.55;2.53;;;27.30;49.30;;;;;;6369068;22;20081;-72
2020/12/30 11:49:32;;;;;;;5.93;2.45;;;27.30;49.30;;;;;;6399515;22;19998;-72
2020/12/30 11:51:58;;;;;;;7.95;2.70;;;27.40;49.30;;;;;;6369392;22;20002;-70
2020/12/30 11:54:33;;;;;;;7.78;2.63;;;27.40;49.90;;;;;;6398035;22;20078;-69
2020/12/30 11:57:00;;;;;;;8.05;2.00;;;27.40;49.10;;;;;;6368391;22;20062;-71
2020/12/30 11:59:26;;;;;;;12.18;2.88;;;27.50;49.20;;;;;;6397663;22;20001;-71
2020/12/30 12:01:53;;;;;;;5.40;1.90;;;27.50;48.90;;;;;;6398333;22;20047;-74
2020/12/30 12:04:19;;;;;;;11.48;2.55;;;27.50;48.70;;;;;;6396946;22;20077;-72
2020/12/30 12:06:46;;;;;;;8.25;2.13;;;27.60;48.40;;;;;;6399054;22;20066;-73
2020/12/30 12:09:12;;;;;;;10.35;2.58;;;27.60;48.00;;;;;;6396370;22;20417;-73
2020/12/30 12:11:39;;;;;;;7.70;2.17;;;27.60;48.40;;;;;;6398258;22;20002;-68
2020/12/30 12:14:33;;;;;;;4.50;1.98;;;27.60;48.40;;;;;;6396602;22;20081;-70
2020/12/30 12:17:40;;;;;;;10.50;2.33;;;27.60;47.50;;;;;;6343301;22;20017;-71
2020/12/30 12:20:06;;;;;;;10.15;2.33;;;27.60;47.50;;;;;;6398309;22;20241;-68
2020/12/30 12:23:15;;;;;;;7.65;2.42;;;27.60;47.70;;;;;;6396842;22;19994;-66
2020/12/30 12:25:44;;;;;;;6.72;2.60;;;27.70;47.70;;;;;;6397134;22;20434;-68
2020/12/30 12:28:31;;;;;;;5.65;2.40;;;27.60;47.70;;;;;;6397635;22;20445;-67
2020/12/30 12:30:57;;;;;;;10.80;2.00;;;27.70;47.60;;;;;;6395584;22;20002;-72
2020/12/30 12:34:03;;;;;;;9.77;3.17;;;27.70;47.10;;;;;;6398184;22;19994;-67
2020/12/30 12:36:31;;;;;;;14.80;2.75;;;27.70;47.00;;;;;;6397835;22;20004;-69
2020/12/30 12:38:57;;;;;;;9.88;2.55;;;27.70;47.00;;;;;;6368893;22;20002;-67
2020/12/30 12:41:32;;;;;;;17.17;3.08;;;27.70;46.80;;;;;;6397308;22;20085;-66
2020/12/30 12:43:58;;;;;;;;;;;27.80;46.90;;;;;;6369919;22;20340;-68
2020/12/30 12:46:33;;;;;;;12.88;3.30;;;27.80;46.80;;;;;;6397770;22;19905;-73
2020/12/30 12:48:59;;;;;;;;;;;27.80;47.00;;;;;;6370489;22;20056;-68
2020/12/30 12:51:25;;;;;;;5.43;1.95;;;27.90;47.10;;;;;;6398082;22;19901;-69
2020/12/30 12:53:55;;;;;;;10.23;2.40;;;27.90;47.10;;;;;;6398305;22;20418;-67
2020/12/30 12:56:38;;;;;;;7.85;2.38;;;27.90;47.00;;;;;;6396053;22;20345;-69
2020/12/30 12:59:05;;;;;;;8.00;4.05;;;28.00;46.80;;;;;;6393690;22;20030;-67
2020/12/30 13:01:31;;;;;;;8.85;3.17;;;28.00;46.80;;;;;;6396274;22;20013;-67
2020/12/30 13:04:35;;;;;;;8.48;2.20;;;28.00;46.70;;;;;;6397355;22;20460;-68
2020/12/30 13:07:01;;;;;;;9.25;3.78;;;28.00;46.50;;;;;;6369113;22;20021;-67
2020/12/30 13:10:07;;;;;;;10.60;2.63;;;28.00;46.50;;;;;;6395968;22;19998;-70
2020/12/30 13:12:34;;;;;;;6.82;2.17;;;28.00;46.30;;;;;;6397607;22;20554;-69
2020/12/30 13:15:37;;;;;;;7.25;2.38;;;28.00;47.10;;;;;;6396483;22;20001;-69
2020/12/30 13:18:03;;;;;;;11.30;3.00;;;28.10;46.70;;;;;;6367496;22;20013;-67
2020/12/30 13:21:09;;;;;;;6.88;2.80;;;28.00;46.70;;;;;;6397320;22;20039;-68
2020/12/30 13:23:36;;;;;;;9.10;2.88;;;28.00;46.70;;;;;;6397195;22;20306;-68
2020/12/30 13:26:03;;;;;;;9.27;2.30;;;28.00;46.90;;;;;;6395957;22;20018;-69
2020/12/30 13:28:31;;;;;;;11.50;2.67;;;28.00;47.10;;;;;;6397481;22;20020;-67
2020/12/30 13:30:58;;;;;;;6.78;2.05;;;28.10;47.20;;;;;;6367121;22;20037;-67
2020/12/30 13:33:25;;;;;;;8.65;2.33;;;28.10;47.30;;;;;;6397431;22;20393;-67
2020/12/30 13:35:53;;;;;;;9.15;3.35;;;28.10;47.00;;;;;;6396732;22;20081;-68
2020/12/30 13:38:32;;;;;;;11.32;5.68;;;28.10;47.10;;;;;;6397315;22;20063;-70
2020/12/30 13:40:58;;;;;;;10.00;3.97;;;28.10;46.90;;;;;;6368554;22;20014;-71
2020/12/30 13:43:25;;;;;;;11.80;3.35;;;28.10;46.80;;;;;;6397252;22;20516;-74
2020/12/30 13:45:51;;;;;;;12.38;3.22;;;28.10;46.70;;;;;;6369567;22;20089;-72
2020/12/30 13:48:18;;;;;;;15.32;3.28;;;28.10;46.50;;;;;;6396186;22;20005;-73
2020/12/30 13:50:44;;;;;;;8.88;2.53;;;28.10;46.40;;;;;;6397746;22;19998;-68
2020/12/30 13:53:11;;;;;;;11.38;2.83;;;28.00;46.40;;;;;;6395998;22;20382;-72
2020/12/30 13:55:37;;;;;;;9.73;3.22;;;28.00;46.40;;;;;;6397297;22;19998;-68
2020/12/30 13:58:04;;;;;;;9.73;3.05;;;28.00;46.50;;;;;;6397039;22;20049;-67
2020/12/30 14:00:30;;;;;;;11.50;2.30;;;28.00;46.60;;;;;;6396725;22;20010;-73
2020/12/30 14:02:57;;;;;;;11.68;2.55;;;28.00;46.70;;;;;;6397470;22;20001;-71
2020/12/30 14:05:35;;;;;;;12.02;2.85;;;28.00;46.70;;;;;;6396191;22;19994;-70
2020/12/30 14:08:01;;;;;;;6.20;2.47;;;28.00;46.80;;;;;;6370171;22;20425;-67
2020/12/30 14:10:32;;;;;;;10.55;2.88;;;27.90;46.90;;;;;;6395955;22;19997;-69
2020/12/30 14:12:59;;;;;;;8.32;2.28;;;27.90;47.00;;;;;;6369542;22;20023;-73
2020/12/30 14:15:33;;;;;;;9.50;2.42;;;28.00;47.70;;;;;;6396427;22;20443;-71
2020/12/30 14:18:00;;;;;;;;;;;28.00;47.00;;;;;;6369981;22;20002;-69
2020/12/30 14:20:30;;;;;;;9.15;3.38;;;27.90;47.00;;;;;;6397154;22;19905;-67
2020/12/30 14:22:57;;;;;;;6.30;2.95;;;28.00;47.20;;;;;;6368301;22;20027;-70
2020/12/30 14:25:23;;;;;;;10.30;2.70;;;28.00;47.30;;;;;;6397660;22;20093;-69
2020/12/30 14:28:29;;;;;;;9.23;3.10;;;28.00;47.30;;;;;;6396215;22;20407;-67
2020/12/30 14:30:56;;;;;;;11.20;3.15;;;28.00;47.30;;;;;;6396730;22;20040;-71